METAR Data
IDs: Format: Raw Decoded Include TAF

Data at: 1550 UTC 04 Aug 2021

EGFF 041520Z AUTO 26008KT 9999 NCD 21/11 Q1012